Details From LOWI - Innsbruck Kranebitten
To LOWS - Salzburg Maxglan
Flight Number -
Tags generated
Created
Modified
Stats Distance 75 nm / 138 km
Max Altitude 3,800 ft / 1,158 m
Waypoints 3
Social Downloads 0
Likes 0
Share VATSIM

Download

Looking for another format? Having issues loading an existing format? Contact us
Advertisement - Login to hide

Notes

Basic altitude profile: - Ascent Rate: 2500ft/min - Ascent Speed: 250kts - Cruise Altitude: 35000ft - Cruise Speed: 420kts - Descent Rate: 1500ft/min - Descent Speed: 250kts Options: - Use NATs: yes - Use PACOTS: yes - Use low airways: yes - Use high airways: yes

Route

LOWI LOMRO LOWS

ID Type Via Altitude (ft/m) Position (lat/lon) Dist (leg/tot) Name
O LOWI APT - 0 / 0 47.26023 / 11.34397 - / 0 nm Innsbruck Kranebitten
LOMRO FIX - 3,800 / 1,158 47.66667 / 12.59694 56 / 56 nm
O LOWS APT - 0 / 0 47.79333 / 13.00433 18 / 74 nm Salzburg Maxglan

Altitude Profile

Advertisement - Login to hide

LOWI

Details ICAO LOWI (INN)
Name Innsbruck Kranebitten
Region Austria
Timezone Europe/Vienna (UTC+2.0)
Stats Elevation 1,905 ft / 581 m (AMSL)
Location 47.260200° 11.344000°
Runways 1
Magnetic Variation 3.121° E

METAR

LOWI 212320Z AUTO VRB01KT 9999 NSC 02/00 Q1026

Decode

TAF

TAF LOWI 211715Z 2118/2218 09004KT CAVOK TX14/2214Z TN02/2206Z BECMG 2200/2202 8000 FEW015 BECMG 2210/2212 08008KT CAVOK

Decode

Departure Runways

ID Width Length Bearing (true/mag) Surface Threshold Overrun Markings Lighting
08 148 ft / 45 m 6,544 ft / 1,995 m 80.93° / 77.81° ASPHALT 338 ft / 103 m 0 ft / 0 m PREC-APP CENTERLINE REIL-OMNI
26 148 ft / 45 m 6,544 ft / 1,995 m 260.95° / 257.83° ASPHALT 0 ft / 0 m 0 ft / 0 m PREC-APP CENTERLINE MALS REIL-OMNI

LOWS

Details ICAO LOWS (SZG)
Name Salzburg Maxglan
Region Austria
Timezone Europe/Vienna (UTC+2.0)
Stats Elevation 1,411 ft / 430 m (AMSL)
Location 47.793800° 13.003600°
Runways 1
Magnetic Variation 3.530° E

METAR

LOWS 212320Z AUTO VRB01KT 9999 NSC 02/00 Q1027

Decode

TAF

TAF LOWS 211715Z 2118/2218 02005KT 9999 FEW050 TX12/2214Z TN03/2206Z BECMG 2118/2120 14006KT CAVOK PROB30 TEMPO 2200/2207 VRB02KT 3500 BR NSC BECMG 2207/2209 34005KT

Decode

Destination Runways

ID Width Length Bearing (true/mag) Surface Threshold Overrun Markings Lighting
15 148 ft / 45 m 9,348 ft / 2,849 m 156.97° / 153.44° CONCRETE 328 ft / 100 m 0 ft / 0 m PREC-APP CENTERLINE EDGE THRESHOLD SSALR REIL-OMNI
33 148 ft / 45 m 9,348 ft / 2,849 m 336.98° / 333.45° CONCRETE 791 ft / 241 m 0 ft / 0 m PREC-APP CENTERLINE EDGE THRESHOLD SSALR REIL-OMNI

Approach Navaids

Runway Type Ident Frequency Range Bearing (true/mag) Slope Elevation
15 OM OM - - 157.09° / 153.56 ° - 1,411 ft / 430 m (AMSL)
15 LOC-ILS OES 109.90 MHz 18 nm / 33 km 156.98° / 153.45 ° - 1,411 ft / 430 m (AMSL)
15 GS OES 109.90 MHz 10 nm / 19 km 156.98° / 153.45 ° 3.00° 1,411 ft / 430 m (AMSL)
15 DME OES 109.90 MHz 18 nm / 33 km - - 1,446 ft / 441 m (AMSL)

Popular Alternatives